createdAt,value
2023-03-05T00:01:15.516Z,100176.81
2023-03-05T00:03:45.919Z,100178.66
2023-03-05T00:06:14.113Z,100189.41
2023-03-05T00:08:43.315Z,100188.31
2023-03-05T00:11:13.717Z,100192.63
2023-03-05T00:13:42.206Z,100187.78
2023-03-05T00:16:13.148Z,100184.38
2023-03-05T00:18:42.703Z,100189.38
2023-03-05T00:21:21.204Z,100185.78
2023-03-05T00:23:50.906Z,100180.44
2023-03-05T00:26:19.363Z,100181.19
2023-03-05T00:28:50.438Z,100176.72
2023-03-05T00:31:19.324Z,100182.53
2023-03-05T00:33:47.467Z,100176.69
2023-03-05T00:36:15.463Z,100176.44
2023-03-05T00:38:44.934Z,100169.06
2023-03-05T00:41:13.558Z,100173.22
2023-03-05T00:43:41.814Z,100174.13
2023-03-05T00:46:10.289Z,100172.00
2023-03-05T00:48:38.397Z,100157.09
2023-03-05T00:51:07.536Z,100169.09
2023-03-05T00:53:35.902Z,100166.91
2023-03-05T00:56:06.139Z,100162.03
2023-03-05T00:58:34.171Z,100158.69
2023-03-05T01:01:02.978Z,100170.72
2023-03-05T01:03:32.672Z,100160.03
2023-03-05T01:06:01.830Z,100174.13
2023-03-05T01:08:30.148Z,100178.22
2023-03-05T01:10:58.446Z,100169.88
2023-03-05T01:13:27.954Z,100173.78
2023-03-05T01:15:56.048Z,100159.94
2023-03-05T01:18:24.113Z,100161.34
2023-03-05T01:20:52.200Z,100166.97
2023-03-05T01:23:20.414Z,100163.41
2023-03-05T01:25:54.751Z,100174.28
2023-03-05T01:28:23.000Z,100164.69
2023-03-05T01:30:52.695Z,100164.19
2023-03-05T01:33:20.844Z,100142.41
2023-03-05T01:35:49.560Z,100161.53
2023-03-05T01:38:18.417Z,100157.47
2023-03-05T01:40:46.882Z,100156.59
2023-03-05T01:43:25.314Z,100153.53
2023-03-05T01:46:28.157Z,100156.34
2023-03-05T01:49:01.921Z,100157.28
2023-03-05T01:51:33.405Z,100151.88
2023-03-05T01:54:03.408Z,100146.13
2023-03-05T01:56:32.169Z,100155.78
2023-03-05T01:59:04.373Z,100159.19
2023-03-05T02:01:39.100Z,100157.53
2023-03-05T02:04:09.295Z,100157.09
2023-03-05T02:06:37.564Z,100157.78
2023-03-05T02:09:05.817Z,100160.75
2023-03-05T02:11:34.623Z,100159.56
2023-03-05T02:14:03.608Z,100151.19
2023-03-05T02:16:37.064Z,100154.38
2023-03-05T02:19:08.902Z,100141.25
2023-03-05T02:21:44.401Z,100150.69
2023-03-05T02:24:16.755Z,100151.09
2023-03-05T02:26:45.985Z,100155.34
2023-03-05T02:29:18.672Z,100154.31
2023-03-05T02:31:46.936Z,100148.72
2023-03-05T02:34:16.134Z,100153.78
2023-03-05T02:36:45.964Z,100157.53
2023-03-05T02:39:14.055Z,100154.56
2023-03-05T02:41:42.166Z,100170.13
2023-03-05T02:44:10.353Z,100159.53
2023-03-05T02:46:38.572Z,100170.13
2023-03-05T02:49:06.632Z,100166.53
2023-03-05T02:51:34.808Z,100176.09
2023-03-05T02:54:04.405Z,100175.28
2023-03-05T02:56:32.660Z,100166.97
2023-03-05T02:59:01.103Z,100164.69
2023-03-05T03:01:29.895Z,100168.66
2023-03-05T03:03:58.360Z,100157.19
2023-03-05T03:06:26.429Z,100170.78
2023-03-05T03:08:54.443Z,100170.13
2023-03-05T03:11:24.117Z,100175.09
2023-03-05T03:13:52.584Z,100171.56
2023-03-05T03:16:20.740Z,100169.28
2023-03-05T03:18:49.129Z,100171.78
2023-03-05T03:21:22.644Z,100172.84
2023-03-05T03:23:50.748Z,100174.84
2023-03-05T03:26:19.250Z,100180.03
2023-03-05T03:28:48.875Z,100169.16
2023-03-05T03:31:17.248Z,100164.75
2023-03-05T03:33:45.768Z,100174.13
2023-03-05T03:36:14.321Z,100172.56
2023-03-05T03:38:42.762Z,100169.78
2023-03-05T03:41:11.296Z,100174.34
2023-03-05T03:43:39.499Z,100170.72
2023-03-05T03:46:09.391Z,100170.81
2023-03-05T03:48:37.519Z,100170.31
2023-03-05T03:51:07.429Z,100165.16
2023-03-05T03:53:35.643Z,100173.28
2023-03-05T03:56:04.672Z,100148.94
2023-03-05T03:58:32.825Z,100171.41
2023-03-05T04:01:01.216Z,100158.78
2023-03-05T04:03:30.734Z,100160.59
2023-03-05T04:05:58.642Z,100168.44
2023-03-05T04:08:26.724Z,100161.25
2023-03-05T04:10:54.624Z,100169.09
2023-03-05T04:13:22.762Z,100164.88
2023-03-05T04:15:50.895Z,100164.34
2023-03-05T04:18:19.357Z,100161.25
2023-03-05T04:20:49.372Z,100159.22
2023-03-05T04:23:17.957Z,100150.47
2023-03-05T04:25:46.006Z,100155.06
2023-03-05T04:28:14.310Z,100158.44
2023-03-05T04:30:42.302Z,100157.00
2023-03-05T04:33:10.693Z,100163.38
2023-03-05T04:35:38.989Z,100156.41
2023-03-05T04:38:08.475Z,100156.72
2023-03-05T04:40:37.103Z,100156.25
2023-03-05T04:43:05.849Z,100156.78
2023-03-05T04:45:34.773Z,100158.31
2023-03-05T04:48:03.017Z,100168.31
2023-03-05T04:50:31.046Z,100163.53
2023-03-05T04:53:00.551Z,100170.72
2023-03-05T04:55:30.190Z,100163.69
2023-03-05T04:57:58.369Z,100165.72
2023-03-05T05:00:26.585Z,100161.59
2023-03-05T05:02:54.968Z,100170.22
2023-03-05T05:05:26.171Z,100176.53
2023-03-05T05:07:56.560Z,100164.50
2023-03-05T05:10:25.583Z,100178.84
2023-03-05T05:12:55.367Z,100178.47
2023-03-05T05:15:23.526Z,100176.00
2023-03-05T05:17:52.663Z,100179.94
2023-03-05T05:20:20.948Z,100193.84
2023-03-05T05:22:49.155Z,100185.69
2023-03-05T05:25:17.598Z,100192.25
2023-03-05T05:27:45.762Z,100191.00
2023-03-05T05:30:17.112Z,100202.03
2023-03-05T05:32:45.136Z,100202.28
2023-03-05T05:35:13.756Z,100206.28
2023-03-05T05:37:41.927Z,100203.06
2023-03-05T05:40:11.252Z,100208.22
2023-03-05T05:42:40.138Z,100218.63
2023-03-05T05:45:09.810Z,100215.28
2023-03-05T05:47:39.372Z,100212.69
2023-03-05T05:50:08.887Z,100219.09
2023-03-05T05:52:36.922Z,100230.50
2023-03-05T05:55:06.072Z,100228.13
2023-03-05T05:57:35.080Z,100232.50
2023-03-05T06:00:03.972Z,100232.03
2023-03-05T06:02:32.071Z,100218.44
2023-03-05T06:05:01.595Z,100230.28
2023-03-05T06:07:29.785Z,100234.47
2023-03-05T06:09:57.786Z,100219.94
2023-03-05T06:12:25.834Z,100230.53
2023-03-05T06:14:54.061Z,100239.94
2023-03-05T06:17:30.288Z,100239.06
2023-03-05T06:19:59.474Z,100242.50
2023-03-05T06:22:29.283Z,100228.09
2023-03-05T06:24:57.805Z,100235.56
2023-03-05T06:27:25.944Z,100233.59
2023-03-05T06:29:56.719Z,100239.94
2023-03-05T06:32:24.986Z,100239.34
2023-03-05T06:34:53.895Z,100221.69
2023-03-05T06:37:22.049Z,100240.88
2023-03-05T06:39:51.822Z,100241.63
2023-03-05T06:42:20.158Z,100247.84
2023-03-05T06:44:48.547Z,100239.06
2023-03-05T06:47:16.827Z,100242.25
2023-03-05T06:49:44.900Z,100244.00
2023-03-05T06:52:13.027Z,100237.63
2023-03-05T06:54:41.432Z,100244.63
2023-03-05T06:57:11.795Z,100243.69
2023-03-05T06:59:39.811Z,100231.31
2023-03-05T07:02:08.027Z,100239.25
2023-03-05T07:04:40.316Z,100240.72
2023-03-05T07:07:08.524Z,100235.19
2023-03-05T07:09:42.887Z,100236.16
2023-03-05T07:12:13.396Z,100239.47
2023-03-05T07:14:41.779Z,100244.31
2023-03-05T07:17:10.417Z,100245.88
2023-03-05T07:19:39.548Z,100244.88
2023-03-05T07:22:08.239Z,100214.63
2023-03-05T07:24:36.687Z,100245.34
2023-03-05T07:27:04.859Z,100252.09
2023-03-05T07:29:34.690Z,100237.94
2023-03-05T07:32:02.817Z,100245.84
2023-03-05T07:34:30.886Z,100243.59
2023-03-05T07:36:58.821Z,100242.50
2023-03-05T07:39:26.862Z,100243.78
2023-03-05T07:41:55.121Z,100244.50
2023-03-05T07:44:23.137Z,100245.16
2023-03-05T07:46:53.025Z,100236.03
2023-03-05T07:49:21.444Z,100244.59
2023-03-05T07:51:49.478Z,100253.72
2023-03-05T07:54:17.483Z,100236.53
2023-03-05T07:56:45.482Z,100241.94
2023-03-05T07:59:14.363Z,100234.34
2023-03-05T08:01:42.557Z,100235.63
2023-03-05T08:04:12.111Z,100237.13
2023-03-05T08:06:41.943Z,100240.06
2023-03-05T08:09:09.968Z,100232.34
2023-03-05T08:11:37.959Z,100242.19
2023-03-05T08:14:06.047Z,100236.28
2023-03-05T08:16:34.133Z,100237.16
2023-03-05T08:19:02.579Z,100233.13
2023-03-05T08:21:35.061Z,100221.16
2023-03-05T08:24:04.625Z,100222.22
2023-03-05T08:26:34.660Z,100217.56
2023-03-05T08:29:03.800Z,100222.16
2023-03-05T08:31:33.565Z,100220.09
2023-03-05T08:34:03.232Z,100210.25
2023-03-05T08:36:33.695Z,100200.81
2023-03-05T08:39:01.874Z,100199.59
2023-03-05T08:41:30.529Z,100211.06
2023-03-05T08:43:58.894Z,100216.00
2023-03-05T08:46:27.826Z,100216.19
2023-03-05T08:48:55.842Z,100205.22
2023-03-05T08:51:26.444Z,100205.59
2023-03-05T08:53:59.044Z,100179.22
2023-03-05T08:56:28.633Z,100204.03
2023-03-05T08:58:56.748Z,100194.56
2023-03-05T09:01:25.084Z,100193.22
2023-03-05T09:03:53.554Z,100185.88
2023-03-05T09:06:21.986Z,100180.56
2023-03-05T09:08:50.025Z,100180.22
2023-03-05T09:11:19.641Z,100179.38
2023-03-05T09:13:48.149Z,100173.16
2023-03-05T09:16:18.340Z,100180.94
2023-03-05T09:18:46.704Z,100172.31
2023-03-05T09:21:17.271Z,100168.00
2023-03-05T09:23:47.349Z,100164.97
2023-03-05T09:26:19.594Z,100156.66
2023-03-05T09:28:49.978Z,100165.09
2023-03-05T09:31:18.200Z,100158.53
2023-03-05T09:33:46.281Z,100154.06
2023-03-05T09:36:20.967Z,100152.19
2023-03-05T09:38:49.295Z,100151.53
2023-03-05T09:41:23.245Z,100150.63
2023-03-05T09:44:00.106Z,100142.53
2023-03-05T09:46:39.476Z,100133.78
2023-03-05T09:49:19.210Z,100118.47
2023-03-05T09:51:51.660Z,100123.91
2023-03-05T09:54:24.645Z,100137.66
2023-03-05T09:56:57.502Z,100122.03
2023-03-05T09:59:36.102Z,100119.16
2023-03-05T10:02:15.059Z,100116.09
2023-03-05T10:04:46.464Z,100110.81
2023-03-05T10:07:20.839Z,100109.97
2023-03-05T10:09:55.941Z,100107.78
2023-03-05T10:12:31.476Z,100099.09
2023-03-05T10:15:03.332Z,100100.50
2023-03-05T10:17:52.453Z,100091.50
2023-03-05T10:20:32.541Z,100071.19
2023-03-05T10:23:10.891Z,100082.41
2023-03-05T10:25:56.287Z,100085.00
2023-03-05T10:28:30.843Z,100074.41
2023-03-05T10:31:11.358Z,100080.66
2023-03-05T10:33:47.802Z,100066.22
2023-03-05T10:36:31.433Z,100070.44
2023-03-05T10:39:14.799Z,100058.88
2023-03-05T10:41:53.330Z,100059.69
2023-03-05T10:44:27.942Z,100049.63
2023-03-05T10:46:59.499Z,100046.00
2023-03-05T10:49:32.883Z,100047.69
2023-03-05T10:52:08.947Z,100044.16
2023-03-05T10:54:41.891Z,100028.19
2023-03-05T10:57:18.920Z,100042.38
2023-03-05T10:59:51.731Z,100036.50
2023-03-05T11:02:22.683Z,100032.13
2023-03-05T11:04:51.932Z,100031.97
2023-03-05T11:07:36.987Z,100033.88
2023-03-05T11:10:16.117Z,100021.94
2023-03-05T11:12:45.229Z,100024.91
2023-03-05T11:15:31.648Z,100014.19
2023-03-05T11:18:24.339Z,100013.13
2023-03-05T11:20:53.216Z,100010.47
2023-03-05T11:23:24.062Z,100013.16
2023-03-05T11:26:03.019Z,99999.28
2023-03-05T11:28:34.969Z,100010.59
2023-03-05T11:31:09.859Z,100007.50
2023-03-05T11:33:39.659Z,99978.75
2023-03-05T11:36:24.607Z,99996.38
2023-03-05T11:38:55.401Z,99975.72
2023-03-05T11:41:30.138Z,99991.69
2023-03-05T11:44:01.030Z,99972.66
2023-03-05T11:46:30.009Z,99975.59
2023-03-05T11:49:00.027Z,99967.81
2023-03-05T11:51:36.113Z,99972.09
2023-03-05T11:54:10.414Z,99970.13
2023-03-05T11:56:39.767Z,99964.84
2023-03-05T11:59:18.084Z,99953.56
2023-03-05T12:01:50.015Z,99952.22
2023-03-05T12:04:20.168Z,99961.53
2023-03-05T12:06:50.483Z,99957.06
2023-03-05T12:09:25.917Z,99950.56
2023-03-05T12:12:02.510Z,99949.84
2023-03-05T12:14:36.868Z,99948.47
2023-03-05T12:17:11.900Z,99936.56
2023-03-05T12:19:52.450Z,99930.03
2023-03-05T12:22:23.768Z,99928.47
2023-03-05T12:24:52.860Z,99924.84
2023-03-05T12:27:35.843Z,99924.63
2023-03-05T12:30:05.534Z,99926.59
2023-03-05T12:33:12.605Z,99917.59
2023-03-05T12:35:42.871Z,99921.09
2023-03-05T12:38:32.451Z,99913.78
2023-03-05T12:41:44.986Z,99907.53
2023-03-05T12:44:24.148Z,99865.03
2023-03-05T12:47:19.387Z,99903.91
2023-03-05T12:49:51.340Z,99897.19
2023-03-05T12:52:28.084Z,99897.06
2023-03-05T12:55:03.891Z,99896.69
2023-03-05T12:57:33.417Z,99886.31
2023-03-05T13:00:11.120Z,99897.69
2023-03-05T13:02:42.527Z,99902.19
2023-03-05T13:05:20.949Z,99900.91
2023-03-05T13:07:50.698Z,99886.91
2023-03-05T13:10:25.146Z,99895.59
2023-03-05T13:12:55.728Z,99895.22
2023-03-05T13:15:25.926Z,99910.13
2023-03-05T13:17:57.619Z,99905.56
2023-03-05T13:20:34.030Z,99899.03
2023-03-05T13:23:16.177Z,99901.22
2023-03-05T13:25:45.039Z,99904.19
2023-03-05T13:28:15.209Z,99894.03
2023-03-05T13:30:47.410Z,99884.84
2023-03-05T13:33:20.094Z,99893.97
2023-03-05T13:35:49.185Z,99895.31
2023-03-05T13:38:25.833Z,99888.91
2023-03-05T13:41:10.201Z,99899.38
2023-03-05T13:43:43.991Z,99895.66
2023-03-05T13:46:12.813Z,99895.44
2023-03-05T13:48:41.368Z,99892.34
2023-03-05T13:51:12.085Z,99894.97
2023-03-05T13:53:41.877Z,99893.28
2023-03-05T13:56:19.750Z,99894.50
2023-03-05T13:58:53.539Z,99870.78
2023-03-05T14:01:30.543Z,99883.06
2023-03-05T14:04:01.992Z,99880.72
2023-03-05T14:06:31.191Z,99875.69
2023-03-05T14:09:06.430Z,99866.88
2023-03-05T14:11:35.632Z,99875.78
2023-03-05T14:14:11.138Z,99874.81
2023-03-05T14:16:39.516Z,99852.59
2023-03-05T14:19:09.919Z,99868.09
2023-03-05T14:21:46.810Z,99866.16
2023-03-05T14:24:23.567Z,99868.13
2023-03-05T14:26:53.788Z,99856.94
2023-03-05T14:29:24.640Z,99840.03
2023-03-05T14:31:54.774Z,99843.56
2023-03-05T14:34:27.414Z,99858.38
2023-03-05T14:36:58.009Z,99845.81
2023-03-05T14:39:46.552Z,99843.78
2023-03-05T14:42:34.057Z,99842.03
2023-03-05T14:45:10.973Z,99850.22
2023-03-05T14:47:39.313Z,99851.09
2023-03-05T14:50:08.564Z,99852.91
2023-03-05T14:52:37.394Z,99854.13
2023-03-05T14:55:08.279Z,99836.25
2023-03-05T14:57:37.320Z,99839.34
2023-03-05T15:00:06.532Z,99842.31
2023-03-05T15:02:34.652Z,99848.72
2023-03-05T15:05:03.053Z,99851.34
2023-03-05T15:07:33.052Z,99852.34
2023-03-05T15:10:01.539Z,99846.88
2023-03-05T15:12:31.362Z,99848.81
2023-03-05T15:14:59.582Z,99844.91
2023-03-05T15:17:35.652Z,99843.25
2023-03-05T15:20:08.521Z,99842.59
2023-03-05T15:22:37.693Z,99839.97
2023-03-05T15:25:06.440Z,99844.91
2023-03-05T15:27:36.360Z,99823.53
2023-03-05T15:30:04.971Z,99831.75
2023-03-05T15:32:33.472Z,99839.19
2023-03-05T15:35:02.433Z,99841.81
2023-03-05T15:37:30.617Z,99847.00
2023-03-05T15:39:58.764Z,99851.16
2023-03-05T15:42:26.854Z,99844.50
2023-03-05T15:44:56.612Z,99833.84
2023-03-05T15:47:25.221Z,99790.59
2023-03-05T15:49:53.695Z,99848.84
2023-03-05T15:52:21.938Z,99845.03
2023-03-05T15:54:50.369Z,99843.84
2023-03-05T15:57:21.969Z,99842.81
2023-03-05T15:59:50.758Z,99841.59
2023-03-05T16:02:20.420Z,99843.53
2023-03-05T16:04:48.792Z,99853.19
2023-03-05T16:07:17.539Z,99850.94
2023-03-05T16:09:49.342Z,99851.81
2023-03-05T16:12:21.971Z,99855.91
2023-03-05T16:14:52.028Z,99852.69
2023-03-05T16:17:23.854Z,99852.59
2023-03-05T16:19:54.454Z,99849.34
2023-03-05T16:22:23.900Z,99847.28
2023-03-05T16:24:52.356Z,99852.47
2023-03-05T16:27:20.479Z,99855.38
2023-03-05T16:29:48.854Z,99847.97
2023-03-05T16:32:17.981Z,99843.31
2023-03-05T16:34:47.610Z,99845.69
2023-03-05T16:37:20.604Z,99848.78
2023-03-05T16:39:49.690Z,99859.75
2023-03-05T16:42:18.579Z,99855.47
2023-03-05T16:44:47.720Z,99855.13
2023-03-05T16:47:15.919Z,99870.53
2023-03-05T16:49:44.028Z,99868.34
2023-03-05T16:52:19.046Z,99868.94
2023-03-05T16:54:48.210Z,99868.03
2023-03-05T16:57:16.749Z,99864.59
2023-03-05T16:59:45.112Z,99864.16
2023-03-05T17:02:15.592Z,99869.19
2023-03-05T17:04:43.930Z,99875.66
2023-03-05T17:07:13.822Z,99877.34
2023-03-05T17:09:42.206Z,99867.81
2023-03-05T17:12:10.541Z,99868.81
2023-03-05T17:14:39.088Z,99875.13
2023-03-05T17:17:07.206Z,99872.34
2023-03-05T17:19:35.999Z,99860.34
2023-03-05T17:22:04.958Z,99871.22
2023-03-05T17:24:35.153Z,99867.72
2023-03-05T17:27:03.419Z,99865.31
2023-03-05T17:29:32.263Z,99881.56
2023-03-05T17:32:00.907Z,99876.09
2023-03-05T17:34:36.050Z,99871.47
2023-03-05T17:37:06.558Z,99851.97
2023-03-05T17:39:36.320Z,99857.47
2023-03-05T17:42:04.618Z,99868.91
2023-03-05T17:44:32.825Z,99875.16
2023-03-05T17:47:01.277Z,99884.72
2023-03-05T17:49:29.385Z,99888.75
2023-03-05T17:51:57.525Z,99885.16
2023-03-05T17:54:25.856Z,99888.41
2023-03-05T17:56:57.295Z,99884.94
2023-03-05T17:59:26.440Z,99903.00
2023-03-05T18:01:54.619Z,99905.25
2023-03-05T18:04:23.025Z,99907.25
2023-03-05T18:06:51.135Z,99913.69
2023-03-05T18:09:19.513Z,99900.09
2023-03-05T18:11:47.611Z,99910.25
2023-03-05T18:14:17.337Z,99914.63
2023-03-05T18:16:45.580Z,99913.13
2023-03-05T18:19:13.940Z,99910.75
2023-03-05T18:21:42.866Z,99915.34
2023-03-05T18:24:11.482Z,99918.78
2023-03-05T18:26:39.613Z,99922.09
2023-03-05T18:29:07.756Z,99903.41
2023-03-05T18:31:37.373Z,99908.47
2023-03-05T18:34:05.536Z,99924.84
2023-03-05T18:36:34.382Z,99920.47
2023-03-05T18:39:03.700Z,99918.84
2023-03-05T18:41:32.293Z,99925.38
2023-03-05T18:44:02.062Z,99936.44
2023-03-05T18:46:30.544Z,99938.63
2023-03-05T18:49:00.313Z,99946.50
2023-03-05T18:51:29.757Z,99950.47
2023-03-05T18:53:57.975Z,99946.03
2023-03-05T18:56:26.656Z,99955.63
2023-03-05T18:58:56.133Z,99950.69
2023-03-05T19:01:25.135Z,99964.59
2023-03-05T19:03:53.904Z,99949.00
2023-03-05T19:06:23.455Z,99966.13
2023-03-05T19:09:37.210Z,99956.47
2023-03-05T19:12:06.035Z,99965.19
2023-03-05T19:14:34.408Z,99964.97
2023-03-05T19:17:02.478Z,99970.44
2023-03-05T19:19:30.601Z,99968.16
2023-03-05T19:22:00.874Z,99950.56
2023-03-05T19:24:30.926Z,99981.31
2023-03-05T19:27:01.332Z,99985.84
2023-03-05T19:29:33.043Z,99988.44
2023-03-05T19:32:01.541Z,99995.00
2023-03-05T19:34:29.647Z,99991.88
2023-03-05T19:36:59.824Z,99973.94
2023-03-05T19:39:28.035Z,99962.50
2023-03-05T19:41:56.585Z,100008.63
2023-03-05T19:44:25.034Z,100003.13
2023-03-05T19:46:53.471Z,100003.91
2023-03-05T19:49:22.281Z,100009.41
2023-03-05T19:51:51.132Z,100002.16
2023-03-05T19:54:22.971Z,100008.53
2023-03-05T19:56:54.929Z,99994.94
2023-03-05T19:59:24.496Z,99983.56
2023-03-05T20:01:53.252Z,100003.97
2023-03-05T20:04:23.814Z,100011.88
2023-03-05T20:06:52.416Z,100003.66
2023-03-05T20:09:21.959Z,100009.22
2023-03-05T20:11:51.294Z,100011.44
2023-03-05T20:14:19.398Z,100021.50
2023-03-05T20:16:47.471Z,100021.97
2023-03-05T20:19:18.202Z,100015.50
2023-03-05T20:21:46.914Z,100018.38
2023-03-05T20:24:17.000Z,100021.59
2023-03-05T20:26:48.397Z,100021.84
2023-03-05T20:29:18.719Z,100029.25
2023-03-05T20:31:47.153Z,100032.66
2023-03-05T20:34:19.539Z,100034.47
2023-03-05T20:36:48.013Z,100034.66
2023-03-05T20:39:16.842Z,100032.53
2023-03-05T20:41:47.057Z,100035.44
2023-03-05T20:44:16.619Z,100026.13
2023-03-05T20:47:16.071Z,100038.19
2023-03-05T20:49:44.190Z,100038.00
2023-03-05T20:52:12.927Z,100043.22
2023-03-05T20:54:41.094Z,100040.25
2023-03-05T20:57:11.020Z,100045.94
2023-03-05T20:59:39.191Z,100038.56
2023-03-05T21:02:07.388Z,100045.59
2023-03-05T21:04:35.526Z,100040.13
2023-03-05T21:07:04.242Z,100044.72
2023-03-05T21:09:32.317Z,100044.84
2023-03-05T21:12:00.567Z,100042.78
2023-03-05T21:14:31.548Z,100047.63
2023-03-05T21:16:59.618Z,100046.69
2023-03-05T21:19:27.707Z,100057.41
2023-03-05T21:21:56.075Z,100059.09
2023-03-05T21:25:16.741Z,100057.56
2023-03-05T21:27:45.052Z,100052.09
2023-03-05T21:30:15.167Z,100060.16
2023-03-05T21:32:43.251Z,100058.50
2023-03-05T21:35:17.034Z,100058.28
2023-03-05T21:37:45.980Z,100055.19
2023-03-05T21:40:16.514Z,100062.31
2023-03-05T21:42:45.267Z,100051.06
2023-03-05T21:45:16.565Z,100048.84
2023-03-05T21:47:45.025Z,100044.53
2023-03-05T21:50:14.793Z,100053.34
2023-03-05T21:52:43.494Z,100048.84
2023-03-05T21:55:14.560Z,100052.97
2023-03-05T21:57:42.754Z,100051.91
2023-03-05T22:00:12.972Z,100049.13
2023-03-05T22:02:43.329Z,100046.69
2023-03-05T22:05:15.710Z,100045.22
2023-03-05T22:07:44.769Z,100051.72
2023-03-05T22:10:15.976Z,100047.34
2023-03-05T22:13:12.646Z,100054.28
2023-03-05T22:15:46.326Z,100054.09
2023-03-05T22:18:18.177Z,100051.72
2023-03-05T22:20:46.776Z,100053.94
2023-03-05T22:23:15.511Z,100056.72
2023-03-05T22:25:43.787Z,100045.94
2023-03-05T22:28:13.360Z,100051.75
2023-03-05T22:30:45.151Z,100042.94
2023-03-05T22:33:13.644Z,100051.31
2023-03-05T22:35:43.795Z,100049.84
2023-03-05T22:38:12.482Z,100031.66
2023-03-05T22:40:43.101Z,100042.06
2023-03-05T22:43:11.299Z,100042.19
2023-03-05T22:45:39.807Z,100052.97
2023-03-05T22:48:09.976Z,100048.56
2023-03-05T22:50:38.273Z,100051.19
2023-03-05T22:53:07.998Z,100055.91
2023-03-05T22:55:38.892Z,100054.66
2023-03-05T22:58:07.037Z,100053.94
2023-03-05T23:00:35.420Z,100041.84
2023-03-05T23:03:03.583Z,100051.78
2023-03-05T23:05:31.874Z,100050.84
2023-03-05T23:07:59.961Z,100049.56
2023-03-05T23:10:30.085Z,100049.56
2023-03-05T23:13:00.143Z,100048.31
2023-03-05T23:15:30.551Z,100051.34
2023-03-05T23:17:58.970Z,100045.91
2023-03-05T23:20:32.118Z,100047.28
2023-03-05T23:23:00.380Z,100024.75
2023-03-05T23:25:32.145Z,100040.88
2023-03-05T23:28:01.224Z,100042.75
2023-03-05T23:30:30.252Z,100048.63
2023-03-05T23:33:00.115Z,100044.88
2023-03-05T23:35:30.506Z,100045.72
2023-03-05T23:38:00.144Z,100048.00
2023-03-05T23:40:32.553Z,99957.03
2023-03-05T23:43:01.587Z,100041.72
2023-03-05T23:45:30.547Z,100034.09
2023-03-05T23:47:59.284Z,100030.69
2023-03-05T23:50:29.392Z,100032.84
2023-03-05T23:52:59.479Z,100028.75
2023-03-05T23:55:32.524Z,100031.09
2023-03-05T23:58:01.148Z,100026.25
